Terminal Aerodrome Forecast
Issued by NWS

Home | Current Version | Previous Version | Text Only | Print | Product List | Glossary Off
Versions: 1 2 3 4 5 6 7 8 9 10 11 12 13 14 15 16 17 18 19 20 21 22 23 24

850
FTUS43 KGRB 231723
TAFATW
TAF
KATW 231723Z 2318/2418 07015KT P6SM SCT060
     FM240700 09006KT P6SM SCT200
     FM241500 16010G16KT P6SM SCT200=

USA.gov is the U.S. government's official web portal to all federal, state and local government web resources and services.